sensor_id;sensor_type;location;lat;lon;timestamp;P1;durP1;ratioP1;P2;durP2;ratioP2
65558;SDS011;52203;51.998;5.140;2022-11-20T00:03:04;14.23;;;6.72;;
65558;SDS011;52203;51.998;5.140;2022-11-20T00:06:06;16.10;;;8.30;;
65558;SDS011;52203;51.998;5.140;2022-11-20T00:08:42;17.05;;;7.55;;
65558;SDS011;52203;51.998;5.140;2022-11-20T00:11:43;15.10;;;6.82;;
65558;SDS011;52203;51.998;5.140;2022-11-20T00:14:53;16.33;;;6.85;;
65558;SDS011;52203;51.998;5.140;2022-11-20T00:17:31;19.40;;;7.97;;
65558;SDS011;52203;51.998;5.140;2022-11-20T00:20:00;21.20;;;8.85;;
65558;SDS011;52203;51.998;5.140;2022-11-20T00:25:43;16.85;;;6.55;;
65558;SDS011;52203;51.998;5.140;2022-11-20T00:28:33;17.02;;;8.50;;
65558;SDS011;52203;51.998;5.140;2022-11-20T01:19:34;14.75;;;7.18;;
65558;SDS011;52203;51.998;5.140;2022-11-20T01:36:03;13.32;;;5.93;;
65558;SDS011;52203;51.998;5.140;2022-11-20T01:38:42;15.20;;;6.10;;
65558;SDS011;52203;51.998;5.140;2022-11-20T01:41:18;12.45;;;6.35;;
65558;SDS011;52203;51.998;5.140;2022-11-20T01:44:20;19.60;;;6.93;;
65558;SDS011;52203;51.998;5.140;2022-11-20T01:47:09;13.82;;;5.82;;
65558;SDS011;52203;51.998;5.140;2022-11-20T01:49:46;11.93;;;6.03;;
65558;SDS011;52203;51.998;5.140;2022-11-20T01:52:20;17.23;;;7.65;;
65558;SDS011;52203;51.998;5.140;2022-11-20T01:55:32;17.45;;;7.22;;
65558;SDS011;52203;51.998;5.140;2022-11-20T01:58:22;16.92;;;6.70;;
65558;SDS011;52203;51.998;5.140;2022-11-20T02:01:07;15.65;;;6.85;;
65558;SDS011;52203;51.998;5.140;2022-11-20T02:06:51;13.60;;;6.65;;
65558;SDS011;52203;51.998;5.140;2022-11-20T02:09:22;18.95;;;7.57;;
65558;SDS011;52203;51.998;5.140;2022-11-20T02:11:51;22.52;;;8.75;;
65558;SDS011;52203;51.998;5.140;2022-11-20T02:14:17;16.17;;;7.50;;
65558;SDS011;52203;51.998;5.140;2022-11-20T02:16:50;12.70;;;6.00;;
65558;SDS011;52203;51.998;5.140;2022-11-20T02:19:43;13.18;;;6.47;;
65558;SDS011;52203;51.998;5.140;2022-11-20T02:22:35;14.77;;;6.70;;
65558;SDS011;52203;51.998;5.140;2022-11-20T02:31:04;21.75;;;9.55;;
65558;SDS011;52203;51.998;5.140;2022-11-20T02:37:29;16.27;;;7.55;;
65558;SDS011;52203;51.998;5.140;2022-11-20T02:43:15;17.65;;;7.40;;
65558;SDS011;52203;51.998;5.140;2022-11-20T02:45:55;14.70;;;7.30;;
65558;SDS011;52203;51.998;5.140;2022-11-20T02:48:21;16.80;;;6.95;;
65558;SDS011;52203;51.998;5.140;2022-11-20T02:53:29;17.70;;;7.53;;
65558;SDS011;52203;51.998;5.140;2022-11-20T02:56:40;18.67;;;7.43;;
65558;SDS011;52203;51.998;5.140;2022-11-20T02:59:14;14.95;;;6.60;;
65558;SDS011;52203;51.998;5.140;2022-11-20T03:01:55;17.05;;;7.57;;
65558;SDS011;52203;51.998;5.140;2022-11-20T03:04:27;17.20;;;8.00;;
65558;SDS011;52203;51.998;5.140;2022-11-20T03:06:52;21.15;;;9.07;;
65558;SDS011;52203;51.998;5.140;2022-11-20T03:09:52;16.30;;;6.85;;
65558;SDS011;52203;51.998;5.140;2022-11-20T03:12:47;20.10;;;8.05;;
65558;SDS011;52203;51.998;5.140;2022-11-20T03:15:46;16.75;;;7.72;;
65558;SDS011;52203;51.998;5.140;2022-11-20T03:18:39;15.65;;;7.30;;
65558;SDS011;52203;51.998;5.140;2022-11-20T03:24:22;16.55;;;8.13;;
65558;SDS011;52203;51.998;5.140;2022-11-20T03:26:53;17.58;;;6.85;;
65558;SDS011;52203;51.998;5.140;2022-11-20T03:29:42;14.60;;;5.82;;
65558;SDS011;52203;51.998;5.140;2022-11-20T03:32:10;14.98;;;7.22;;
65558;SDS011;52203;51.998;5.140;2022-11-20T03:34:42;17.90;;;8.38;;
65558;SDS011;52203;51.998;5.140;2022-11-20T03:37:26;16.85;;;6.75;;
65558;SDS011;52203;51.998;5.140;2022-11-20T03:40:00;15.25;;;7.38;;
65558;SDS011;52203;51.998;5.140;2022-11-20T03:42:46;14.30;;;7.13;;
65558;SDS011;52203;51.998;5.140;2022-11-20T03:45:12;16.77;;;7.47;;
65558;SDS011;52203;51.998;5.140;2022-11-20T03:50:37;18.33;;;7.57;;
65558;SDS011;52203;51.998;5.140;2022-11-20T03:53:12;14.65;;;6.72;;
65558;SDS011;52203;51.998;5.140;2022-11-20T03:55:41;18.70;;;7.85;;
65558;SDS011;52203;51.998;5.140;2022-11-20T03:58:29;16.10;;;6.53;;
65558;SDS011;52203;51.998;5.140;2022-11-20T04:01:20;19.02;;;7.32;;
65558;SDS011;52203;51.998;5.140;2022-11-20T04:03:48;17.00;;;7.35;;
65558;SDS011;52203;51.998;5.140;2022-11-20T04:06:17;19.50;;;8.60;;
65558;SDS011;52203;51.998;5.140;2022-11-20T04:09:13;18.48;;;8.45;;
65558;SDS011;52203;51.998;5.140;2022-11-20T04:11:48;19.25;;;8.20;;
65558;SDS011;52203;51.998;5.140;2022-11-20T04:14:27;18.08;;;8.45;;
65558;SDS011;52203;51.998;5.140;2022-11-20T04:17:16;21.02;;;8.15;;
65558;SDS011;52203;51.998;5.140;2022-11-20T04:20:08;16.98;;;6.93;;
65558;SDS011;52203;51.998;5.140;2022-11-20T04:23:14;20.30;;;7.97;;
65558;SDS011;52203;51.998;5.140;2022-11-20T04:26:22;15.95;;;7.47;;
65558;SDS011;52203;51.998;5.140;2022-11-20T04:28:52;16.00;;;7.50;;
65558;SDS011;52203;51.998;5.140;2022-11-20T04:31:19;14.85;;;7.05;;
65558;SDS011;52203;51.998;5.140;2022-11-20T04:33:49;13.45;;;6.60;;
65558;SDS011;52203;51.998;5.140;2022-11-20T04:36:19;15.02;;;7.22;;
65558;SDS011;52203;51.998;5.140;2022-11-20T04:38:49;18.65;;;7.97;;
65558;SDS011;52203;51.998;5.140;2022-11-20T04:41:40;17.58;;;7.90;;
65558;SDS011;52203;51.998;5.140;2022-11-20T04:44:05;15.38;;;6.63;;
65558;SDS011;52203;51.998;5.140;2022-11-20T04:46:40;16.88;;;7.30;;
65558;SDS011;52203;51.998;5.140;2022-11-20T04:49:10;18.58;;;8.35;;
65558;SDS011;52203;51.998;5.140;2022-11-20T04:51:35;17.40;;;7.13;;
65558;SDS011;52203;51.998;5.140;2022-11-20T04:54:01;14.05;;;6.72;;
65558;SDS011;52203;51.998;5.140;2022-11-20T04:56:30;19.02;;;8.23;;
65558;SDS011;52203;51.998;5.140;2022-11-20T04:59:05;18.38;;;8.30;;
65558;SDS011;52203;51.998;5.140;2022-11-20T05:01:58;19.20;;;8.75;;
65558;SDS011;52203;51.998;5.140;2022-11-20T05:04:44;14.98;;;7.28;;
65558;SDS011;52203;51.998;5.140;2022-11-20T05:07:10;21.42;;;8.45;;
65558;SDS011;52203;51.998;5.140;2022-11-20T05:09:35;21.38;;;9.43;;
65558;SDS011;52203;51.998;5.140;2022-11-20T05:12:08;20.95;;;8.82;;
65558;SDS011;52203;51.998;5.140;2022-11-20T05:14:53;18.13;;;7.53;;
65558;SDS011;52203;51.998;5.140;2022-11-20T05:17:28;18.73;;;8.20;;
65558;SDS011;52203;51.998;5.140;2022-11-20T05:19:54;18.00;;;7.45;;
65558;SDS011;52203;51.998;5.140;2022-11-20T05:22:19;15.18;;;6.28;;
65558;SDS011;52203;51.998;5.140;2022-11-20T05:24:47;17.55;;;7.95;;
65558;SDS011;52203;51.998;5.140;2022-11-20T05:27:13;17.98;;;7.97;;
65558;SDS011;52203;51.998;5.140;2022-11-20T05:29:42;20.20;;;8.57;;
65558;SDS011;52203;51.998;5.140;2022-11-20T05:32:07;17.30;;;7.72;;
65558;SDS011;52203;51.998;5.140;2022-11-20T05:34:36;14.63;;;6.72;;
65558;SDS011;52203;51.998;5.140;2022-11-20T05:37:02;15.10;;;7.32;;
65558;SDS011;52203;51.998;5.140;2022-11-20T05:39:28;14.93;;;7.95;;
65558;SDS011;52203;51.998;5.140;2022-11-20T05:41:59;20.58;;;8.45;;
65558;SDS011;52203;51.998;5.140;2022-11-20T05:44:43;18.45;;;7.65;;
65558;SDS011;52203;51.998;5.140;2022-11-20T05:47:18;19.20;;;7.03;;
65558;SDS011;52203;51.998;5.140;2022-11-20T05:49:43;13.98;;;6.13;;
65558;SDS011;52203;51.998;5.140;2022-11-20T05:52:09;17.27;;;7.60;;
65558;SDS011;52203;51.998;5.140;2022-11-20T05:54:36;16.67;;;7.25;;
65558;SDS011;52203;51.998;5.140;2022-11-20T05:57:01;20.48;;;8.85;;
65558;SDS011;52203;51.998;5.140;2022-11-20T05:59:30;19.27;;;7.90;;
65558;SDS011;52203;51.998;5.140;2022-11-20T06:02:00;19.15;;;8.70;;
65558;SDS011;52203;51.998;5.140;2022-11-20T06:07:14;15.07;;;7.00;;
65558;SDS011;52203;51.998;5.140;2022-11-20T06:09:40;19.50;;;8.23;;
65558;SDS011;52203;51.998;5.140;2022-11-20T06:12:06;16.75;;;7.10;;
65558;SDS011;52203;51.998;5.140;2022-11-20T06:14:32;16.75;;;7.90;;
65558;SDS011;52203;51.998;5.140;2022-11-20T06:16:58;13.85;;;7.45;;
65558;SDS011;52203;51.998;5.140;2022-11-20T06:19:24;18.13;;;7.07;;
65558;SDS011;52203;51.998;5.140;2022-11-20T06:21:51;19.85;;;7.28;;
65558;SDS011;52203;51.998;5.140;2022-11-20T06:24:17;17.80;;;7.97;;
65558;SDS011;52203;51.998;5.140;2022-11-20T06:26:50;18.70;;;7.53;;
65558;SDS011;52203;51.998;5.140;2022-11-20T06:29:19;16.67;;;8.25;;
65558;SDS011;52203;51.998;5.140;2022-11-20T06:32:10;21.48;;;7.95;;
65558;SDS011;52203;51.998;5.140;2022-11-20T06:34:36;17.45;;;7.80;;
65558;SDS011;52203;51.998;5.140;2022-11-20T06:37:01;18.48;;;8.55;;
65558;SDS011;52203;51.998;5.140;2022-11-20T06:39:27;19.30;;;8.30;;
65558;SDS011;52203;51.998;5.140;2022-11-20T06:41:53;20.33;;;9.48;;
65558;SDS011;52203;51.998;5.140;2022-11-20T06:44:18;19.90;;;9.05;;
65558;SDS011;52203;51.998;5.140;2022-11-20T06:46:56;17.67;;;8.32;;
65558;SDS011;52203;51.998;5.140;2022-11-20T06:49:24;17.52;;;9.25;;
65558;SDS011;52203;51.998;5.140;2022-11-20T06:51:52;15.70;;;7.32;;
65558;SDS011;52203;51.998;5.140;2022-11-20T06:54:18;19.65;;;8.32;;
65558;SDS011;52203;51.998;5.140;2022-11-20T06:56:46;18.63;;;8.50;;
65558;SDS011;52203;51.998;5.140;2022-11-20T06:59:12;16.90;;;7.55;;
65558;SDS011;52203;51.998;5.140;2022-11-20T07:01:40;15.15;;;7.20;;
65558;SDS011;52203;51.998;5.140;2022-11-20T07:04:09;17.88;;;7.68;;
65558;SDS011;52203;51.998;5.140;2022-11-20T07:06:34;21.42;;;8.30;;
65558;SDS011;52203;51.998;5.140;2022-11-20T07:09:02;17.35;;;8.30;;
65558;SDS011;52203;51.998;5.140;2022-11-20T07:11:28;17.35;;;7.88;;
65558;SDS011;52203;51.998;5.140;2022-11-20T07:13:54;17.83;;;7.63;;
65558;SDS011;52203;51.998;5.140;2022-11-20T07:16:49;18.33;;;7.60;;
65558;SDS011;52203;51.998;5.140;2022-11-20T07:19:17;20.95;;;8.00;;
65558;SDS011;52203;51.998;5.140;2022-11-20T07:21:43;18.13;;;7.93;;
65558;SDS011;52203;51.998;5.140;2022-11-20T07:24:09;13.70;;;6.38;;
65558;SDS011;52203;51.998;5.140;2022-11-20T07:26:45;12.45;;;5.57;;
65558;SDS011;52203;51.998;5.140;2022-11-20T07:29:15;15.18;;;6.72;;
65558;SDS011;52203;51.998;5.140;2022-11-20T07:31:43;19.23;;;6.32;;
65558;SDS011;52203;51.998;5.140;2022-11-20T07:34:22;17.63;;;8.43;;
65558;SDS011;52203;51.998;5.140;2022-11-20T07:36:51;13.57;;;6.78;;
65558;SDS011;52203;51.998;5.140;2022-11-20T07:39:17;9.48;;;4.85;;
65558;SDS011;52203;51.998;5.140;2022-11-20T07:42:06;18.50;;;8.30;;
65558;SDS011;52203;51.998;5.140;2022-11-20T07:44:35;19.55;;;7.78;;
65558;SDS011;52203;51.998;5.140;2022-11-20T07:47:27;11.90;;;6.65;;
65558;SDS011;52203;51.998;5.140;2022-11-20T07:50:21;16.00;;;6.00;;
65558;SDS011;52203;51.998;5.140;2022-11-20T07:56:03;14.13;;;6.60;;
65558;SDS011;52203;51.998;5.140;2022-11-20T07:59:14;14.88;;;6.35;;
65558;SDS011;52203;51.998;5.140;2022-11-20T08:01:37;24.60;;;9.82;;
65558;SDS011;52203;51.998;5.140;2022-11-20T08:04:56;18.48;;;8.15;;
65558;SDS011;52203;51.998;5.140;2022-11-20T08:14:17;18.95;;;7.18;;
65558;SDS011;52203;51.998;5.140;2022-11-20T08:17:13;20.95;;;8.73;;
65558;SDS011;52203;51.998;5.140;2022-11-20T08:19:42;18.02;;;8.13;;
65558;SDS011;52203;51.998;5.140;2022-11-20T08:22:29;18.23;;;8.18;;
65558;SDS011;52203;51.998;5.140;2022-11-20T08:39:25;18.35;;;8.80;;
65558;SDS011;52203;51.998;5.140;2022-11-20T08:42:09;18.67;;;8.27;;
65558;SDS011;52203;51.998;5.140;2022-11-20T08:45:04;20.85;;;10.02;;
65558;SDS011;52203;51.998;5.140;2022-11-20T08:47:48;23.48;;;10.40;;
65558;SDS011;52203;51.998;5.140;2022-11-20T08:51:02;25.45;;;9.73;;
65558;SDS011;52203;51.998;5.140;2022-11-20T08:53:04;19.95;;;9.82;;
65558;SDS011;52203;51.998;5.140;2022-11-20T08:55:33;17.55;;;7.97;;
65558;SDS011;52203;51.998;5.140;2022-11-20T08:58:19;21.90;;;9.70;;
65558;SDS011;52203;51.998;5.140;2022-11-20T09:00:45;19.70;;;8.68;;
65558;SDS011;52203;51.998;5.140;2022-11-20T09:03:14;23.42;;;10.27;;
65558;SDS011;52203;51.998;5.140;2022-11-20T09:06:23;18.95;;;8.70;;
65558;SDS011;52203;51.998;5.140;2022-11-20T09:09:17;27.27;;;10.98;;
65558;SDS011;52203;51.998;5.140;2022-11-20T09:11:44;22.80;;;9.88;;
65558;SDS011;52203;51.998;5.140;2022-11-20T09:25:01;18.00;;;9.70;;
65558;SDS011;52203;51.998;5.140;2022-11-20T09:28:15;21.02;;;10.23;;
65558;SDS011;52203;51.998;5.140;2022-11-20T09:31:35;26.70;;;10.13;;
65558;SDS011;52203;51.998;5.140;2022-11-20T11:50:28;31.60;;;13.15;;
65558;SDS011;52203;51.998;5.140;2022-11-20T11:53:58;32.92;;;14.50;;
65558;SDS011;52203;51.998;5.140;2022-11-20T12:01:17;26.70;;;11.85;;
65558;SDS011;52203;51.998;5.140;2022-11-20T12:33:37;31.80;;;12.68;;
65558;SDS011;52203;51.998;5.140;2022-11-20T12:37:08;33.47;;;13.55;;
65558;SDS011;52203;51.998;5.140;2022-11-20T12:40:02;31.60;;;13.55;;
65558;SDS011;52203;51.998;5.140;2022-11-20T13:29:59;32.13;;;14.80;;
65558;SDS011;52203;51.998;5.140;2022-11-20T13:40:04;18.55;;;8.50;;
65558;SDS011;52203;51.998;5.140;2022-11-20T14:29:57;17.65;;;8.25;;
65558;SDS011;52203;51.998;5.140;2022-11-20T14:41:05;32.70;;;14.35;;
